Airport View

Enter AWOS ICAO identifier for current METAR.

ex. KFNL

KUES 201215Z AUTO 00000KT 5SM BR OVC006 01/01 A3013 RMK AO2

20 Nov 2019 12:16

Frequency: 118.875

Phone: 262-521-5226

Other Area AWOS: KMWC - K57C - KMKE - KBUU

TAF KUES 201120Z 2012/2112 00000KT 4SM BR OVC006 TEMPO 2012/2015 6SM BR OVC009 FM201500 VRB03KT P6SM OVC009 FM202100 17006KT P6SM OVC080 FM210700 17012G18KT 6SM -RA OVC040 WS020/20045KT FM211000 18014G23KT 5SM RA BR OVC015 WS020/20050KT